CMA CGM Columba — 2DBC9 — position and weather

sailwx.info

Track history (hours):
 
Tides and Currents Weather Stations Pressure Air Temp Water Temp Dewpoint Dewpoint Depression Visibility Wind Speed Wind Dir Waves Ship Positions

CMA CGM Columba

Last reported at 2015-May-27 11:09 UTC. Time now 2015-May-27 15:55 UTC.
Position N 38°45' E 120°13'.

Length 363 m; draft 12.1 m.

Type: Ship (hazmat cat A). MMSI: 235077448.

Date/timePositionNaut miles runAvg speedWind from/ knotsBaromVisibWave heightAir tempDewpointWater temp
2015-May-27 11:09N 38°45' E 120°13'1118.6
2015-May-27 10:33N 38°41' E 120°26'4715.5
2015-May-27 07:33N 38°24' E 121°22'1918.9
2015-May-27 06:33N 38°16' E 121°43'1919.1
2015-May-27 05:33N 38°07' E 122°05'1919.3
2015-May-27 04:33N 37°59' E 122°27'2019.5
2015-May-27 03:33N 37°50' E 122°49'1919.1
2015-May-27 02:33N 37°41' E 123°10'1918.5
2015-May-27 01:33N 37°23' E 123°15'1918.8
2015-May-27 00:33N 37°04' E 123°17'1918.7
2015-May-26 23:33N 36°46' E 123°18'1918.6
2015-May-26 22:33N 36°27' E 123°20'1918.5
2015-May-26 21:33N 36°09' E 123°21'1918.8
2015-May-26 20:33N 35°50' E 123°22'1919.1
2015-May-26 19:33N 35°31' E 123°23'1919.2
2015-May-26 18:33N 35°11' E 123°24'1918.9
2015-May-26 17:33N 34°53' E 123°27'1918.3
2015-May-26 16:30N 34°34' E 123°29'1917.9
2015-May-26 15:27N 34°15' E 123°31'1718.5
2015-May-26 14:33N 33°58' E 123°32'2018.8
2015-May-26 13:30N 33°38' E 123°31'1918.6
2015-May-26 12:27N 33°19' E 123°33'1719.0
2015-May-26 11:33N 33°02' E 123°33'1918.9
2015-May-26 10:33N 32°43' E 123°34'1919.3
2015-May-26 09:33N 32°24' E 123°35'1919.2
2015-May-26 08:33N 32°04' E 123°34'1919.4
2015-May-26 07:34N 31°45' E 123°34'1919.2
2015-May-26 06:33N 31°26' E 123°34'1918.8
2015-May-26 05:33N 31°08' E 123°39'1616.1
2015-May-26 04:33N 30°52' E 123°36'1918.4
2015-May-26 03:33N 30°33' E 123°34'1919.3
2015-May-26 02:33N 30°14' E 123°33'1818.4
2015-May-26 01:33N 29°56' E 123°31'1919.2
2015-May-26 00:33N 29°39' E 123°19'1918.8
2015-May-25 23:33N 29°24' E 123°08'1919.1
2015-May-25 22:33N 29°07' E 122°56'2019.3
2015-May-25 21:33N 28°51' E 122°44'2119.2
2015-May-25 20:28N 28°33' E 122°32'1819.2
2015-May-25 19:31N 28°18' E 122°21'2319.5
2015-May-25 18:20N 27°58' E 122°08'1618.9
2015-May-25 17:28N 27°44' E 121°57'22919.1
2015-May-25 05:27N 24°41' E 119°24'1719.2
2015-May-25 04:33N 24°30' E 119°10'4019.3
2015-May-25 02:29N 24°02' E 118°38'1819.4
2015-May-25 01:33N 23°51' E 118°23'9518.3
2015-May-24 20:22N 22°53' E 117°01'141 5.5
2015-May-23 18:33N 22°21' E 114°32'1514.6
2015-May-23 17:32N 22°07' E 114°36'1717.1
2015-May-23 16:31N 21°51' E 114°29'  
2015-May-20 12:21N 01°10' E 103°48'  
Track history (hours):
 
Tides and Currents Weather Stations Pressure Air Temp Water Temp Dewpoint Dewpoint Depression Visibility Wind Speed Wind Dir Waves Ship Positions

CMA CGM Columba

Last reported at 2015-May-27 11:09 UTC. Time now 2015-May-27 15:55 UTC.
Position N 38°45' E 120°13'.

Length 363 m; draft 12.1 m.

Type: Ship (hazmat cat A). MMSI: 235077448.

Date/timePositionNaut miles runAvg speedWind from/ knotsBaromVisibWave heightAir tempDewpointWater temp
2015-May-27 11:09N 38°45' E 120°13'1118.6
2015-May-27 10:33N 38°41' E 120°26'4715.5
2015-May-27 07:33N 38°24' E 121°22'1918.9
2015-May-27 06:33N 38°16' E 121°43'1919.1
2015-May-27 05:33N 38°07' E 122°05'1919.3
2015-May-27 04:33N 37°59' E 122°27'2019.5
2015-May-27 03:33N 37°50' E 122°49'1919.1
2015-May-27 02:33N 37°41' E 123°10'1918.5
2015-May-27 01:33N 37°23' E 123°15'1918.8
2015-May-27 00:33N 37°04' E 123°17'1918.7
2015-May-26 23:33N 36°46' E 123°18'1918.6
2015-May-26 22:33N 36°27' E 123°20'1918.5
2015-May-26 21:33N 36°09' E 123°21'1918.8
2015-May-26 20:33N 35°50' E 123°22'1919.1
2015-May-26 19:33N 35°31' E 123°23'1919.2
2015-May-26 18:33N 35°11' E 123°24'1918.9
2015-May-26 17:33N 34°53' E 123°27'1918.3
2015-May-26 16:30N 34°34' E 123°29'1917.9
2015-May-26 15:27N 34°15' E 123°31'1718.5
2015-May-26 14:33N 33°58' E 123°32'2018.8
2015-May-26 13:30N 33°38' E 123°31'1918.6
2015-May-26 12:27N 33°19' E 123°33'1719.0
2015-May-26 11:33N 33°02' E 123°33'1918.9
2015-May-26 10:33N 32°43' E 123°34'1919.3
2015-May-26 09:33N 32°24' E 123°35'1919.2
2015-May-26 08:33N 32°04' E 123°34'1919.4
2015-May-26 07:34N 31°45' E 123°34'1919.2
2015-May-26 06:33N 31°26' E 123°34'1918.8
2015-May-26 05:33N 31°08' E 123°39'1616.1
2015-May-26 04:33N 30°52' E 123°36'1918.4
2015-May-26 03:33N 30°33' E 123°34'1919.3
2015-May-26 02:33N 30°14' E 123°33'1818.4
2015-May-26 01:33N 29°56' E 123°31'1919.2
2015-May-26 00:33N 29°39' E 123°19'1918.8
2015-May-25 23:33N 29°24' E 123°08'1919.1
2015-May-25 22:33N 29°07' E 122°56'2019.3
2015-May-25 21:33N 28°51' E 122°44'2119.2
2015-May-25 20:28N 28°33' E 122°32'1819.2
2015-May-25 19:31N 28°18' E 122°21'2319.5
2015-May-25 18:20N 27°58' E 122°08'1618.9
2015-May-25 17:28N 27°44' E 121°57'22919.1
2015-May-25 05:27N 24°41' E 119°24'1719.2
2015-May-25 04:33N 24°30' E 119°10'4019.3
2015-May-25 02:29N 24°02' E 118°38'1819.4
2015-May-25 01:33N 23°51' E 118°23'9518.3
2015-May-24 20:22N 22°53' E 117°01'141 5.5
2015-May-23 18:33N 22°21' E 114°32'1514.6
2015-May-23 17:32N 22°07' E 114°36'1717.1
2015-May-23 16:31N 21°51' E 114°29'  
2015-May-20 12:21N 01°10' E 103°48'  

Dump ship's entire track history